createdAt,value
2023-01-11T00:00:01.560Z,1.63
2023-01-11T00:03:02.235Z,1.60
2023-01-11T00:05:47.826Z,1.35
2023-01-11T00:08:38.558Z,2.05
2023-01-11T00:11:24.145Z,1.55
2023-01-11T00:14:09.934Z,1.55
2023-01-11T00:16:59.103Z,1.83
2023-01-11T00:19:45.084Z,1.60
2023-01-11T00:22:30.855Z,1.40
2023-01-11T00:25:16.625Z,1.50
2023-01-11T00:28:02.513Z,1.25
2023-01-11T00:30:49.351Z,1.20
2023-01-11T00:33:35.508Z,1.40
2023-01-11T00:36:21.783Z,1.00
2023-01-11T00:39:07.650Z,1.23
2023-01-11T00:42:11.988Z,1.27
2023-01-11T00:45:31.177Z,1.20
2023-01-11T00:48:17.187Z,1.17
2023-01-11T00:51:02.789Z,1.15
2023-01-11T00:53:48.564Z,1.13
2023-01-11T00:56:35.916Z,1.10
2023-01-11T00:59:21.797Z,1.70
2023-01-11T01:02:09.472Z,1.25
2023-01-11T01:04:55.418Z,1.30
2023-01-11T01:07:42.155Z,1.58
2023-01-11T01:10:28.322Z,1.00
2023-01-11T01:13:32.539Z,1.30
2023-01-11T01:16:19.484Z,1.33
2023-01-11T01:19:05.314Z,1.30
2023-01-11T01:21:51.344Z,1.90
2023-01-11T01:24:37.104Z,1.60
2023-01-11T01:27:22.829Z,1.60
2023-01-11T01:30:08.869Z,1.48
2023-01-11T01:32:56.087Z,1.70
2023-01-11T01:35:41.752Z,2.33
2023-01-11T01:38:28.415Z,2.17
2023-01-11T01:41:15.028Z,1.60
2023-01-11T01:44:25.991Z,1.65
2023-01-11T01:47:12.215Z,1.90
2023-01-11T01:49:59.516Z,2.30
2023-01-11T01:52:48.526Z,2.17
2023-01-11T01:55:36.468Z,2.05
2023-01-11T01:58:27.282Z,2.00
2023-01-11T02:01:32.830Z,1.70
2023-01-11T02:04:40.464Z,1.45
2023-01-11T02:07:33.599Z,2.30
2023-01-11T02:10:21.328Z,2.43
2023-01-11T02:13:10.262Z,2.20
2023-01-11T02:16:09.068Z,1.50
2023-01-11T02:18:55.876Z,1.08
2023-01-11T02:22:03.341Z,1.10
2023-01-11T02:24:49.149Z,1.35
2023-01-11T02:28:07.693Z,1.23
2023-01-11T02:31:11.744Z,2.10
2023-01-11T02:34:12.493Z,1.50
2023-01-11T02:37:20.054Z,1.45
2023-01-11T02:40:56.748Z,1.35
2023-01-11T02:44:17.933Z,1.40
2023-01-11T02:47:07.173Z,1.20
2023-01-11T02:50:16.732Z,1.20
2023-01-11T02:53:26.784Z,1.42
2023-01-11T02:56:25.848Z,1.23
2023-01-11T02:59:14.552Z,1.40
2023-01-11T03:02:00.673Z,1.30
2023-01-11T03:04:46.367Z,1.30
2023-01-11T03:07:57.807Z,1.35
2023-01-11T03:10:56.491Z,1.50
2023-01-11T03:14:04.735Z,1.60
2023-01-11T03:17:25.991Z,1.58
2023-01-11T03:20:35.561Z,1.40
2023-01-11T03:23:43.167Z,1.60
2023-01-11T03:26:44.421Z,1.40
2023-01-11T03:29:40.382Z,1.27
2023-01-11T03:32:44.724Z,1.60
2023-01-11T03:35:45.331Z,1.50
2023-01-11T03:38:37.822Z,1.33
2023-01-11T03:41:27.994Z,1.40
2023-01-11T03:44:15.039Z,1.10
2023-01-11T03:47:06.058Z,1.15
2023-01-11T03:50:07.571Z,1.13
2023-01-11T03:52:57.815Z,1.20
2023-01-11T03:55:44.756Z,1.10
2023-01-11T03:58:30.762Z,1.08
2023-01-11T04:01:16.938Z,1.00
2023-01-11T04:04:02.852Z,0.82
2023-01-11T04:06:48.741Z,1.00
2023-01-11T04:09:36.288Z,1.08
2023-01-11T04:12:23.286Z,1.10
2023-01-11T04:15:09.847Z,1.10
2023-01-11T04:17:56.020Z,1.05
2023-01-11T04:20:41.682Z,0.98
2023-01-11T04:23:27.472Z,1.15
2023-01-11T04:26:13.186Z,0.82
2023-01-11T04:29:02.787Z,0.80
2023-01-11T04:31:48.573Z,0.70
2023-01-11T04:34:34.282Z,0.90
2023-01-11T04:37:21.036Z,0.90
2023-01-11T04:40:07.639Z,0.80
2023-01-11T04:42:53.710Z,1.10
2023-01-11T04:45:39.367Z,0.80
2023-01-11T04:48:25.024Z,0.85
2023-01-11T04:51:10.480Z,1.10
2023-01-11T04:53:56.024Z,0.77
2023-01-11T04:56:41.724Z,1.08
2023-01-11T04:59:27.670Z,1.00
2023-01-11T05:02:14.421Z,0.70
2023-01-11T05:05:00.279Z,0.90
2023-01-11T05:07:51.793Z,0.80
2023-01-11T05:10:38.142Z,1.00
2023-01-11T05:13:43.805Z,0.90
2023-01-11T05:16:29.875Z,1.00
2023-01-11T05:19:15.736Z,1.10
2023-01-11T05:22:01.370Z,1.52
2023-01-11T05:24:46.965Z,1.90
2023-01-11T05:27:33.138Z,1.80
2023-01-11T05:30:18.901Z,1.27
2023-01-11T05:33:04.437Z,1.05
2023-01-11T05:35:50.191Z,1.33
2023-01-11T05:38:35.915Z,1.30
2023-01-11T05:41:23.300Z,1.10
2023-01-11T05:44:31.427Z,1.08
2023-01-11T05:47:17.285Z,1.40
2023-01-11T05:50:03.087Z,1.17
2023-01-11T05:52:48.777Z,1.20
2023-01-11T05:55:34.530Z,1.20
2023-01-11T05:58:20.310Z,1.15
2023-01-11T06:01:06.615Z,1.00
2023-01-11T06:03:52.813Z,1.15
2023-01-11T06:06:38.845Z,1.10
2023-01-11T06:09:25.047Z,1.20
2023-01-11T06:12:11.132Z,0.93
2023-01-11T06:14:56.905Z,1.20
2023-01-11T06:17:42.727Z,1.10
2023-01-11T06:20:28.411Z,0.70
2023-01-11T06:23:14.075Z,1.00
2023-01-11T06:26:07.724Z,1.05
2023-01-11T06:31:39.301Z,0.75
2023-01-11T06:34:25.174Z,1.13
2023-01-11T06:37:11.074Z,1.00
2023-01-11T06:39:56.642Z,1.30
2023-01-11T06:42:43.365Z,1.30
2023-01-11T06:45:29.183Z,1.42
2023-01-11T06:48:14.922Z,2.53
2023-01-11T06:51:00.975Z,3.60
2023-01-11T06:53:46.638Z,3.58
2023-01-11T06:56:32.263Z,3.63
2023-01-11T06:59:18.111Z,2.63
2023-01-11T07:02:04.073Z,2.00
2023-01-11T07:04:50.369Z,2.47
2023-01-11T07:07:37.466Z,2.38
2023-01-11T07:10:23.271Z,2.22
2023-01-11T07:13:10.972Z,2.08
2023-01-11T07:16:02.324Z,1.60
2023-01-11T07:18:48.139Z,1.33
2023-01-11T07:21:34.176Z,1.73
2023-01-11T07:24:20.441Z,1.33
2023-01-11T07:27:06.030Z,1.30
2023-01-11T07:29:53.520Z,1.45
2023-01-11T07:32:39.406Z,1.55
2023-01-11T07:35:26.858Z,1.58
2023-01-11T07:38:13.588Z,2.35
2023-01-11T07:40:59.205Z,7.50
2023-01-11T07:43:44.793Z,5.13
2023-01-11T07:46:30.551Z,5.90
2023-01-11T07:49:16.389Z,4.70
2023-01-11T07:52:02.148Z,2.60
2023-01-11T07:54:47.812Z,4.60
2023-01-11T07:57:34.794Z,1.80
2023-01-11T08:00:21.231Z,1.77
2023-01-11T08:03:08.364Z,2.15
2023-01-11T08:06:06.991Z,1.30
2023-01-11T08:08:52.980Z,1.30
2023-01-11T08:11:57.152Z,1.80
2023-01-11T08:14:43.241Z,2.20
2023-01-11T08:17:29.220Z,2.00
2023-01-11T08:20:15.045Z,1.67
2023-01-11T08:23:05.755Z,1.40
2023-01-11T08:25:56.788Z,1.80
2023-01-11T08:28:46.477Z,2.45
2023-01-11T08:31:32.373Z,2.67
2023-01-11T08:34:17.928Z,19.13
2023-01-11T08:37:07.707Z,34.33
2023-01-11T08:39:55.885Z,16.42
2023-01-11T08:42:41.883Z,7.18
2023-01-11T08:45:29.039Z,5.95
2023-01-11T08:48:16.200Z,5.50
2023-01-11T08:51:02.173Z,4.85
2023-01-11T08:53:48.025Z,31.20
2023-01-11T08:56:33.632Z,20.20
2023-01-11T08:59:20.149Z,33.13
2023-01-11T09:02:06.760Z,14.02
2023-01-11T09:04:52.545Z,6.68
2023-01-11T09:07:38.268Z,12.88
2023-01-11T09:10:27.149Z,7.35
2023-01-11T09:13:13.246Z,6.93
2023-01-11T09:15:59.155Z,9.93
2023-01-11T09:18:44.834Z,8.65
2023-01-11T09:21:31.211Z,5.00
2023-01-11T09:24:17.254Z,3.55
2023-01-11T09:27:04.928Z,3.00
2023-01-11T09:29:51.081Z,3.33
2023-01-11T09:32:36.872Z,3.80
2023-01-11T09:35:22.815Z,5.03
2023-01-11T09:38:08.845Z,26.15
2023-01-11T09:41:24.286Z,5.82
2023-01-11T09:44:16.725Z,3.88
2023-01-11T09:47:30.813Z,2.85
2023-01-11T09:50:31.224Z,2.60
2023-01-11T09:56:46.066Z,3.70
2023-01-11T09:59:50.830Z,2.92
2023-01-11T10:03:19.521Z,3.53
2023-01-11T10:06:09.380Z,2.95
2023-01-11T10:18:27.477Z,2.80
2023-01-11T10:19:18.058Z,1.60
2023-01-11T10:22:12.238Z,1.17
2023-01-11T10:25:11.576Z,0.88
2023-01-11T10:28:05.036Z,0.98
2023-01-11T10:30:58.446Z,1.70
2023-01-11T10:34:04.337Z,6.18
2023-01-11T10:37:27.251Z,3.10
2023-01-11T10:40:30.562Z,3.10
2023-01-11T10:43:21.829Z,2.80
2023-01-11T10:46:17.559Z,1.90
2023-01-11T10:49:32.982Z,2.25
2023-01-11T10:52:39.142Z,2.40
2023-01-11T10:58:30.927Z,3.03
2023-01-11T11:01:32.883Z,2.07
2023-01-11T11:04:39.546Z,2.95
2023-01-11T11:07:34.738Z,10.32
2023-01-11T11:10:26.659Z,11.57
2023-01-11T11:13:12.576Z,2.50
2023-01-11T11:16:01.353Z,6.72
2023-01-11T11:18:49.573Z,4.82
2023-01-11T11:21:37.711Z,5.63
2023-01-11T11:24:42.469Z,1.95
2023-01-11T11:27:38.599Z,1.85
2023-01-11T11:30:38.280Z,1.85
2023-01-11T11:33:38.462Z,4.95
2023-01-11T11:36:24.791Z,2.30
2023-01-11T11:39:20.845Z,1.75
2023-01-11T11:42:10.665Z,1.52
2023-01-11T11:45:11.961Z,1.15
2023-01-11T11:48:02.422Z,1.13
2023-01-11T11:50:49.556Z,1.00
2023-01-11T11:53:55.961Z,2.33
2023-01-11T11:56:42.268Z,2.38
2023-01-11T11:59:30.305Z,1.98
2023-01-11T12:02:29.086Z,6.85
2023-01-11T12:05:15.289Z,4.35
2023-01-11T12:08:01.442Z,39.45
2023-01-11T12:10:50.067Z,3.58
2023-01-11T12:13:37.906Z,4.63
2023-01-11T12:16:31.659Z,6.47
2023-01-11T12:22:22.809Z,2.00
2023-01-11T12:25:08.805Z,1.30
2023-01-11T12:28:01.043Z,2.13
2023-01-11T12:31:00.562Z,2.17
2023-01-11T12:34:01.698Z,2.60
2023-01-11T12:36:50.346Z,1.85
2023-01-11T12:39:50.243Z,1.80
2023-01-11T12:42:55.537Z,2.05
2023-01-11T12:45:50.590Z,2.00
2023-01-11T12:48:42.332Z,2.88
2023-01-11T12:51:37.238Z,5.97
2023-01-11T12:54:44.897Z,2.95
2023-01-11T12:58:00.737Z,3.05
2023-01-11T13:01:17.721Z,2.00
2023-01-11T13:04:22.290Z,1.30
2023-01-11T13:07:37.258Z,0.80
2023-01-11T13:10:43.143Z,6.80
2023-01-11T13:13:51.415Z,1.75
2023-01-11T13:17:11.664Z,1.00
2023-01-11T13:20:03.655Z,1.10
2023-01-11T13:22:53.889Z,1.20
2023-01-11T13:25:42.976Z,2.08
2023-01-11T13:28:36.338Z,1.50
2023-01-11T13:31:23.022Z,1.50
2023-01-11T13:34:24.516Z,1.50
2023-01-11T13:37:20.166Z,1.90
2023-01-11T13:40:29.357Z,1.08
2023-01-11T13:43:19.919Z,1.30
2023-01-11T13:46:16.544Z,1.00
2023-01-11T13:49:10.861Z,1.50
2023-01-11T13:51:59.582Z,2.50
2023-01-11T13:55:07.149Z,12.82
2023-01-11T13:57:57.088Z,3.20
2023-01-11T14:00:52.647Z,11.88
2023-01-11T14:03:55.554Z,14.65
2023-01-11T14:07:00.887Z,17.15
2023-01-11T14:09:59.807Z,4.65
2023-01-11T14:13:07.945Z,2.67
2023-01-11T14:15:58.754Z,2.53
2023-01-11T14:19:20.421Z,2.78
2023-01-11T14:22:24.607Z,1.60
2023-01-11T14:25:28.343Z,1.33
2023-01-11T14:28:44.944Z,2.05
2023-01-11T14:32:07.111Z,2.33
2023-01-11T14:35:25.233Z,1.70
2023-01-11T14:38:32.536Z,1.90
2023-01-11T14:41:49.358Z,1.65
2023-01-11T14:44:54.266Z,1.98
2023-01-11T14:47:55.292Z,1.60
2023-01-11T14:50:50.375Z,1.70
2023-01-11T14:53:46.392Z,1.80
2023-01-11T14:56:35.527Z,2.58
2023-01-11T14:59:30.720Z,1.40
2023-01-11T15:02:17.932Z,1.90
2023-01-11T15:05:05.677Z,2.20
2023-01-11T15:07:51.514Z,2.08
2023-01-11T15:10:37.387Z,2.80
2023-01-11T15:13:28.393Z,2.20
2023-01-11T15:16:45.470Z,1.92
2023-01-11T15:19:34.220Z,2.53
2023-01-11T15:22:28.751Z,2.67
2023-01-11T15:25:25.193Z,3.08
2023-01-11T15:28:50.178Z,2.28
2023-01-11T15:31:40.869Z,2.55
2023-01-11T15:34:38.966Z,1.60
2023-01-11T15:37:48.524Z,2.13
2023-01-11T15:40:39.271Z,2.22
2023-01-11T15:43:51.587Z,2.03
2023-01-11T15:47:11.702Z,2.92
2023-01-11T15:50:35.565Z,1.67
2023-01-11T15:53:39.122Z,1.70
2023-01-11T15:57:00.342Z,2.80
2023-01-11T16:00:24.951Z,2.42
2023-01-11T16:03:36.196Z,1.50
2023-01-11T16:06:35.417Z,2.10
2023-01-11T16:09:41.937Z,1.80
2023-01-11T16:12:49.664Z,3.15
2023-01-11T16:15:57.435Z,3.15
2023-01-11T16:18:46.773Z,2.33
2023-01-11T16:21:40.597Z,2.50
2023-01-11T16:24:29.555Z,2.75
2023-01-11T16:27:31.178Z,2.92
2023-01-11T16:30:20.588Z,3.85
2023-01-11T16:33:28.278Z,4.00
2023-01-11T16:36:21.185Z,2.78
2023-01-11T16:39:12.661Z,2.90
2023-01-11T16:42:03.277Z,1.92
2023-01-11T16:45:01.965Z,2.53
2023-01-11T16:48:07.990Z,2.30
2023-01-11T16:51:04.223Z,2.50
2023-01-11T16:53:57.990Z,1.90
2023-01-11T16:56:48.503Z,2.25
2023-01-11T16:59:36.462Z,2.13
2023-01-11T17:02:32.721Z,2.50
2023-01-11T17:05:24.394Z,4.13
2023-01-11T17:08:35.038Z,2.90
2023-01-11T17:11:57.150Z,2.90
2023-01-11T17:15:18.296Z,2.28
2023-01-11T17:18:04.774Z,2.55
2023-01-11T17:20:53.857Z,2.70
2023-01-11T17:23:39.906Z,1.85
2023-01-11T17:26:28.346Z,2.10
2023-01-11T17:29:24.130Z,2.72
2023-01-11T17:32:27.475Z,2.05
2023-01-11T17:35:36.596Z,2.35
2023-01-11T17:38:24.991Z,5.25
2023-01-11T17:41:33.416Z,2.30
2023-01-11T17:44:41.112Z,2.08
2023-01-11T17:47:28.022Z,2.60
2023-01-11T17:50:24.209Z,1.95
2023-01-11T17:53:28.401Z,2.97
2023-01-11T17:56:32.367Z,2.58
2023-01-11T18:02:14.933Z,7.68
2023-01-11T18:05:02.175Z,11.55
2023-01-11T18:07:52.109Z,17.52
2023-01-11T18:10:39.835Z,12.30
2023-01-11T18:13:31.561Z,23.80
2023-01-11T18:16:19.490Z,24.08
2023-01-11T18:19:30.488Z,11.82
2023-01-11T18:22:31.156Z,16.50
2023-01-11T18:25:21.259Z,3.50
2023-01-11T18:28:21.319Z,2.80
2023-01-11T18:31:10.265Z,2.83
2023-01-11T18:33:56.005Z,2.45
2023-01-11T18:36:41.823Z,2.25
2023-01-11T18:39:28.435Z,3.78
2023-01-11T18:42:17.118Z,3.50
2023-01-11T18:45:03.265Z,3.83
2023-01-11T18:47:49.170Z,3.00
2023-01-11T18:50:35.323Z,2.60
2023-01-11T18:53:23.689Z,3.95
2023-01-11T18:56:09.556Z,4.78
2023-01-11T18:58:55.441Z,3.70
2023-01-11T19:01:54.529Z,3.83
2023-01-11T19:04:47.110Z,3.53
2023-01-11T19:07:33.273Z,3.97
2023-01-11T19:10:21.107Z,4.00
2023-01-11T19:13:07.045Z,4.70
2023-01-11T19:15:53.189Z,4.18
2023-01-11T19:18:38.841Z,4.35
2023-01-11T19:21:24.491Z,4.43
2023-01-11T19:24:10.241Z,4.60
2023-01-11T19:26:56.169Z,4.45
2023-01-11T19:29:42.238Z,5.53
2023-01-11T19:32:28.034Z,5.47
2023-01-11T19:35:13.869Z,6.13
2023-01-11T19:37:59.823Z,4.68
2023-01-11T19:40:46.654Z,6.88
2023-01-11T19:43:33.585Z,4.45
2023-01-11T19:46:30.837Z,5.20
2023-01-11T19:49:18.175Z,4.60
2023-01-11T19:52:04.305Z,4.90
2023-01-11T19:54:51.489Z,5.60
2023-01-11T19:57:37.124Z,3.88
2023-01-11T20:00:23.043Z,4.70
2023-01-11T20:03:09.237Z,5.25
2023-01-11T20:06:04.737Z,5.85
2023-01-11T20:08:51.310Z,4.57
2023-01-11T20:11:37.602Z,6.30
2023-01-11T20:14:23.248Z,5.28
2023-01-11T20:17:08.930Z,6.15
2023-01-11T20:19:54.916Z,6.20
2023-01-11T20:22:44.580Z,9.43
2023-01-11T20:25:30.541Z,9.75
2023-01-11T20:28:17.923Z,11.35
2023-01-11T20:31:06.696Z,13.50
2023-01-11T20:33:53.688Z,13.45
2023-01-11T20:36:39.444Z,14.85
2023-01-11T20:39:26.084Z,22.08
2023-01-11T20:42:12.934Z,24.42
2023-01-11T20:44:59.369Z,23.40
2023-01-11T20:47:45.520Z,25.70
2023-01-11T20:50:31.476Z,24.20
2023-01-11T20:53:17.421Z,24.30
2023-01-11T20:56:06.441Z,25.55
2023-01-11T20:58:52.533Z,27.33
2023-01-11T21:01:38.637Z,27.05
2023-01-11T21:04:24.382Z,26.23
2023-01-11T21:07:10.135Z,26.38
2023-01-11T21:09:55.929Z,24.73
2023-01-11T21:12:41.665Z,23.40
2023-01-11T21:15:27.453Z,20.92
2023-01-11T21:18:13.440Z,23.52
2023-01-11T21:20:59.265Z,21.92
2023-01-11T21:23:46.129Z,22.77
2023-01-11T21:26:32.834Z,23.50
2023-01-11T21:29:18.730Z,24.35
2023-01-11T21:32:04.815Z,25.63
2023-01-11T21:34:51.069Z,25.10
2023-01-11T21:37:37.091Z,20.02
2023-01-11T21:40:22.962Z,11.52
2023-01-11T21:43:09.041Z,10.55
2023-01-11T21:45:58.406Z,12.57
2023-01-11T21:48:44.346Z,10.45
2023-01-11T21:51:30.122Z,10.45
2023-01-11T21:54:18.778Z,16.75
2023-01-11T21:57:04.774Z,20.65
2023-01-11T21:59:50.839Z,22.63
2023-01-11T22:02:36.659Z,21.95
2023-01-11T22:05:24.413Z,23.38
2023-01-11T22:08:10.106Z,23.65
2023-01-11T22:10:57.627Z,23.27
2023-01-11T22:13:45.529Z,22.98
2023-01-11T22:16:33.037Z,21.45
2023-01-11T22:19:19.147Z,40.15
2023-01-11T22:22:06.574Z,20.27
2023-01-11T22:24:52.287Z,13.52
2023-01-11T22:27:37.909Z,12.52
2023-01-11T22:30:23.568Z,12.25
2023-01-11T22:33:09.375Z,14.13
2023-01-11T22:35:55.605Z,13.93
2023-01-11T22:38:41.525Z,9.27
2023-01-11T22:41:27.540Z,12.10
2023-01-11T22:44:13.880Z,11.80
2023-01-11T22:47:00.601Z,11.88
2023-01-11T22:49:46.317Z,12.38
2023-01-11T22:52:32.999Z,17.83
2023-01-11T22:55:18.976Z,20.58
2023-01-11T22:58:04.543Z,22.20
2023-01-11T23:00:51.778Z,21.38
2023-01-11T23:03:39.526Z,28.52
2023-01-11T23:06:28.118Z,29.17
2023-01-11T23:09:16.601Z,27.80
2023-01-11T23:12:20.990Z,25.67
2023-01-11T23:15:07.900Z,24.63
2023-01-11T23:17:53.758Z,24.92
2023-01-11T23:20:39.438Z,16.75
2023-01-11T23:23:27.385Z,14.90
2023-01-11T23:26:13.419Z,9.60
2023-01-11T23:28:59.430Z,7.90
2023-01-11T23:31:45.169Z,7.50
2023-01-11T23:34:30.847Z,6.70
2023-01-11T23:37:16.699Z,6.75
2023-01-11T23:40:02.480Z,7.50
2023-01-11T23:42:48.157Z,6.45
2023-01-11T23:45:37.030Z,6.10
2023-01-11T23:48:26.558Z,6.53
2023-01-11T23:51:12.131Z,5.35
2023-01-11T23:53:57.908Z,6.65
2023-01-11T23:56:44.018Z,6.45
2023-01-11T23:59:30.203Z,5.63
